createdAt,value
2018-05-13T00:01:20.105Z,18.40
2018-05-13T00:03:47.477Z,18.40
2018-05-13T00:06:15.072Z,18.30
2018-05-13T00:08:42.467Z,18.30
2018-05-13T00:11:10.387Z,18.20
2018-05-13T00:13:37.749Z,18.20
2018-05-13T00:16:05.173Z,18.10
2018-05-13T00:18:32.559Z,18.00
2018-05-13T00:20:59.944Z,18.00
2018-05-13T00:23:27.760Z,17.80
2018-05-13T00:25:55.140Z,17.70
2018-05-13T00:28:22.514Z,17.70
2018-05-13T00:30:50.311Z,17.60
2018-05-13T00:33:17.668Z,17.50
2018-05-13T00:35:45.187Z,17.50
2018-05-13T00:38:12.718Z,17.40
2018-05-13T00:40:40.069Z,17.30
2018-05-13T00:43:07.563Z,17.20
2018-05-13T00:45:35.308Z,17.30
2018-05-13T00:48:02.699Z,17.30
2018-05-13T00:50:30.090Z,17.30
2018-05-13T00:53:01.434Z,17.40
2018-05-13T00:55:28.813Z,17.40
2018-05-13T00:57:56.213Z,17.40
2018-05-13T01:00:23.623Z,17.40
2018-05-13T01:02:51.076Z,17.40
2018-05-13T01:05:18.453Z,17.30
2018-05-13T01:07:45.865Z,17.30
2018-05-13T01:10:13.290Z,17.30
2018-05-13T01:12:41.036Z,17.20
2018-05-13T01:15:10.265Z,17.10
2018-05-13T01:17:37.648Z,16.90
2018-05-13T01:20:05.100Z,16.90
2018-05-13T01:22:32.491Z,16.90
2018-05-13T01:24:59.855Z,17.00
2018-05-13T01:27:27.712Z,17.00
2018-05-13T01:29:55.070Z,17.00
2018-05-13T01:32:22.432Z,17.00
2018-05-13T01:34:49.872Z,16.80
2018-05-13T01:37:17.297Z,16.70
2018-05-13T01:39:44.681Z,16.80
2018-05-13T01:42:12.138Z,16.80
2018-05-13T01:44:39.926Z,16.80
2018-05-13T01:47:07.324Z,16.80
2018-05-13T01:49:34.684Z,16.70
2018-05-13T01:52:02.197Z,16.70
2018-05-13T01:54:29.566Z,16.70
2018-05-13T01:56:57.326Z,16.60
2018-05-13T01:59:24.695Z,16.60
2018-05-13T02:01:52.467Z,16.50
2018-05-13T02:04:20.239Z,16.50
2018-05-13T02:12:26.624Z,16.50
2018-05-13T02:14:54.616Z,16.50
2018-05-13T02:17:21.928Z,16.40
2018-05-13T02:19:49.252Z,16.30
2018-05-13T02:22:16.639Z,16.10
2018-05-13T02:24:44.828Z,16.00
2018-05-13T02:27:12.120Z,16.10
2018-05-13T02:29:39.397Z,16.20
2018-05-13T02:32:06.700Z,16.00
2018-05-13T02:34:34.000Z,16.00
2018-05-13T02:37:01.421Z,16.00
2018-05-13T02:39:28.705Z,15.80
2018-05-13T02:41:55.987Z,15.90
2018-05-13T02:44:23.681Z,15.80
2018-05-13T02:46:51.114Z,15.60
2018-05-13T02:49:18.438Z,15.60
2018-05-13T02:51:46.250Z,15.70
2018-05-13T02:54:13.670Z,15.70
2018-05-13T02:56:41.049Z,15.50
2018-05-13T02:59:08.401Z,15.60
2018-05-13T03:01:35.713Z,15.60
2018-05-13T03:04:03.073Z,15.40
2018-05-13T03:06:30.828Z,15.40
2018-05-13T03:08:58.436Z,15.60
2018-05-13T03:11:26.541Z,15.60
2018-05-13T03:13:53.945Z,15.70
2018-05-13T03:16:21.292Z,15.40
2018-05-13T03:18:49.045Z,15.50
2018-05-13T03:21:16.789Z,15.50
2018-05-13T03:23:44.125Z,15.60
2018-05-13T03:26:11.495Z,15.40
2018-05-13T03:28:38.833Z,15.40
2018-05-13T03:31:06.639Z,15.50
2018-05-13T03:33:34.409Z,15.60
2018-05-13T03:36:01.737Z,15.70
2018-05-13T03:38:29.483Z,15.70
2018-05-13T03:40:57.824Z,15.70
2018-05-13T03:43:25.177Z,15.70
2018-05-13T03:45:52.528Z,15.50
2018-05-13T03:48:19.874Z,15.60
2018-05-13T03:50:47.389Z,15.60
2018-05-13T03:53:14.703Z,15.60
2018-05-13T03:55:42.009Z,15.60
2018-05-13T03:58:09.721Z,15.60
2018-05-13T04:00:37.065Z,15.60
2018-05-13T04:03:04.400Z,15.60
2018-05-13T04:05:31.729Z,15.50
2018-05-13T04:11:23.241Z,15.70
2018-05-13T04:14:02.543Z,15.70
2018-05-13T04:16:29.890Z,15.70
2018-05-13T04:18:57.775Z,15.70
2018-05-13T04:21:25.171Z,15.70
2018-05-13T04:23:52.934Z,15.70
2018-05-13T04:26:21.054Z,15.70
2018-05-13T04:28:48.435Z,15.80
2018-05-13T04:31:15.838Z,15.80
2018-05-13T04:33:43.212Z,15.80
2018-05-13T04:36:10.736Z,15.90
2018-05-13T04:38:38.498Z,15.90
2018-05-13T04:41:06.315Z,16.00
2018-05-13T04:43:33.694Z,16.00
2018-05-13T04:46:01.089Z,16.00
2018-05-13T04:48:28.492Z,16.20
2018-05-13T04:51:04.254Z,16.30
2018-05-13T04:53:31.657Z,16.40
2018-05-13T04:55:59.365Z,16.50
2018-05-13T04:58:26.728Z,16.60
2018-05-13T05:00:54.103Z,16.80
2018-05-13T05:03:21.485Z,16.90
2018-05-13T05:05:49.268Z,17.20
2018-05-13T05:08:16.634Z,17.30
2018-05-13T05:10:44.022Z,17.60
2018-05-13T05:13:11.396Z,17.80
2018-05-13T05:15:38.783Z,18.10
2018-05-13T05:18:06.188Z,18.30
2018-05-13T05:20:33.552Z,18.40
2018-05-13T05:23:00.932Z,18.60
2018-05-13T05:25:28.706Z,18.80
2018-05-13T05:27:56.566Z,18.90
2018-05-13T05:30:24.363Z,19.10
2018-05-13T05:32:51.728Z,19.40
2018-05-13T05:35:19.151Z,19.60
2018-05-13T05:37:46.550Z,19.80
2018-05-13T05:40:13.898Z,20.00
2018-05-13T05:42:41.290Z,20.10
2018-05-13T05:45:09.093Z,20.20
2018-05-13T05:47:36.469Z,20.40
2018-05-13T05:50:03.904Z,20.70
2018-05-13T05:52:31.731Z,21.00
2018-05-13T05:54:59.116Z,21.30
2018-05-13T05:57:26.903Z,21.30
2018-05-13T05:59:54.716Z,21.60
2018-05-13T06:02:22.512Z,21.70
2018-05-13T06:04:50.287Z,21.90
2018-05-13T06:07:17.765Z,22.40
2018-05-13T06:09:45.226Z,22.80
2018-05-13T06:12:12.717Z,22.80
2018-05-13T06:14:40.626Z,22.70
2018-05-13T06:17:08.560Z,23.30
2018-05-13T06:19:36.020Z,23.60
2018-05-13T06:22:03.526Z,23.90
2018-05-13T06:24:30.965Z,23.80
2018-05-13T06:26:59.035Z,23.90
2018-05-13T06:29:26.520Z,24.50
2018-05-13T06:31:54.445Z,24.60
2018-05-13T06:34:22.355Z,24.40
2018-05-13T06:36:55.150Z,25.10
2018-05-13T06:39:22.609Z,25.20
2018-05-13T06:41:52.229Z,25.40
2018-05-13T06:44:19.695Z,25.80
2018-05-13T06:46:47.232Z,25.80
2018-05-13T06:49:14.788Z,26.60
2018-05-13T06:51:43.083Z,26.80
2018-05-13T06:54:10.899Z,27.10
2018-05-13T06:56:38.446Z,27.30
2018-05-13T06:59:06.305Z,27.30
2018-05-13T07:01:34.289Z,27.30
2018-05-13T07:04:02.276Z,27.50
2018-05-13T07:06:29.766Z,28.10
2018-05-13T07:08:57.121Z,28.50
2018-05-13T07:11:24.616Z,28.40
2018-05-13T07:13:52.002Z,28.10
2018-05-13T07:16:19.489Z,28.90
2018-05-13T07:18:47.144Z,29.10
2018-05-13T07:21:14.519Z,29.10
2018-05-13T07:23:41.983Z,30.00
2018-05-13T07:26:09.747Z,30.10
2018-05-13T07:28:40.268Z,30.00
2018-05-13T07:31:07.681Z,30.40
2018-05-13T07:33:35.479Z,30.80
2018-05-13T07:36:02.846Z,30.80
2018-05-13T07:38:30.241Z,30.80
2018-05-13T07:40:58.141Z,30.80
2018-05-13T07:43:26.746Z,30.90
2018-05-13T07:45:54.118Z,30.70
2018-05-13T07:48:22.380Z,31.00
2018-05-13T07:50:51.941Z,31.40
2018-05-13T07:53:19.907Z,31.60
2018-05-13T07:55:48.086Z,31.90
2018-05-13T07:58:15.824Z,32.20
2018-05-13T08:00:43.511Z,32.40
2018-05-13T08:03:11.377Z,32.30
2018-05-13T08:05:39.243Z,32.30
2018-05-13T08:08:07.002Z,32.60
2018-05-13T08:10:37.209Z,32.40
2018-05-13T08:13:04.576Z,32.90
2018-05-13T08:15:31.940Z,33.10
2018-05-13T08:18:00.093Z,32.80
2018-05-13T08:20:27.522Z,33.10
2018-05-13T08:22:54.840Z,33.90
2018-05-13T08:25:22.230Z,34.40
2018-05-13T08:27:49.593Z,33.80
2018-05-13T08:30:17.061Z,33.90
2018-05-13T08:32:44.432Z,33.70
2018-05-13T08:35:11.791Z,33.50
2018-05-13T08:37:39.884Z,33.60
2018-05-13T08:40:07.661Z,33.80
2018-05-13T08:42:35.006Z,34.30
2018-05-13T08:45:02.808Z,34.20
2018-05-13T08:47:30.203Z,34.40
2018-05-13T08:49:57.565Z,35.20
2018-05-13T08:52:25.066Z,35.80
2018-05-13T08:54:52.417Z,35.90
2018-05-13T08:57:19.784Z,35.80
2018-05-13T08:59:47.153Z,35.80
2018-05-13T09:02:14.521Z,35.30
2018-05-13T09:04:42.122Z,35.30
2018-05-13T09:07:09.884Z,35.40
2018-05-13T09:09:37.654Z,35.70
2018-05-13T09:12:05.420Z,36.90
2018-05-13T09:14:33.593Z,37.20
2018-05-13T09:17:01.358Z,36.70
2018-05-13T09:19:29.126Z,36.50
2018-05-13T09:21:56.992Z,37.70
2018-05-13T09:24:25.053Z,38.10
2018-05-13T09:26:53.944Z,38.20
2018-05-13T09:29:21.739Z,37.60
2018-05-13T09:31:49.174Z,37.30
2018-05-13T09:34:16.730Z,37.30
2018-05-13T09:36:44.522Z,37.70
2018-05-13T09:39:11.949Z,37.40
2018-05-13T09:41:40.022Z,37.60
2018-05-13T09:44:07.982Z,37.80
2018-05-13T09:46:35.450Z,38.20
2018-05-13T09:49:03.439Z,39.10
2018-05-13T09:51:31.113Z,39.30
2018-05-13T09:53:58.475Z,39.80
2018-05-13T09:56:25.995Z,39.20
2018-05-13T09:58:53.590Z,39.60
2018-05-13T10:01:20.998Z,39.70
2018-05-13T10:03:48.454Z,39.90
2018-05-13T10:06:17.074Z,39.50
2018-05-13T10:08:44.631Z,39.40
2018-05-13T10:11:12.379Z,39.10
2018-05-13T10:13:40.348Z,39.10
2018-05-13T10:16:08.103Z,39.30
2018-05-13T10:18:35.698Z,39.50
2018-05-13T10:21:03.096Z,39.30
2018-05-13T10:23:31.000Z,39.30
2018-05-13T10:25:59.078Z,39.90
2018-05-13T10:28:26.838Z,40.20
2018-05-13T10:30:54.618Z,40.10
2018-05-13T10:33:22.164Z,39.90
2018-05-13T10:35:50.266Z,39.90
2018-05-13T10:38:17.681Z,39.90
2018-05-13T10:40:45.451Z,40.10
2018-05-13T10:43:13.227Z,40.00
2018-05-13T10:45:41.092Z,39.90
2018-05-13T10:48:17.360Z,39.80
2018-05-13T10:50:44.791Z,39.90
2018-05-13T10:53:12.266Z,39.80
2018-05-13T10:55:40.135Z,39.60
2018-05-13T10:58:07.998Z,39.40
2018-05-13T11:00:35.968Z,39.60
2018-05-13T11:03:03.746Z,39.70
2018-05-13T11:05:31.127Z,39.70
2018-05-13T11:07:58.854Z,39.70
2018-05-13T11:10:26.818Z,39.80
2018-05-13T11:12:54.803Z,39.90
2018-05-13T11:15:22.571Z,39.80
2018-05-13T11:17:50.046Z,39.60
2018-05-13T11:20:17.797Z,39.70
2018-05-13T11:22:45.338Z,39.70
2018-05-13T11:25:13.097Z,39.50
2018-05-13T11:27:41.356Z,39.50
2018-05-13T11:30:08.844Z,39.40
2018-05-13T11:32:36.821Z,39.40
2018-05-13T11:35:04.270Z,39.50
2018-05-13T11:37:32.641Z,39.70
2018-05-13T11:40:00.445Z,39.70
2018-05-13T11:42:27.872Z,39.40
2018-05-13T11:44:55.836Z,39.30
2018-05-13T11:47:23.730Z,39.50
2018-05-13T11:49:51.079Z,39.70
2018-05-13T11:52:35.821Z,39.80
2018-05-13T11:55:03.898Z,39.60
2018-05-13T11:57:31.663Z,39.80
2018-05-13T11:59:59.422Z,39.60
2018-05-13T12:02:27.585Z,39.60
2018-05-13T12:04:54.997Z,39.80
2018-05-13T12:07:22.420Z,39.70
2018-05-13T12:09:49.826Z,39.70
2018-05-13T12:12:17.191Z,39.40
2018-05-13T12:14:44.642Z,39.30
2018-05-13T12:17:12.343Z,39.20
2018-05-13T12:19:40.925Z,39.50
2018-05-13T12:22:09.094Z,39.60
2018-05-13T12:24:37.100Z,39.60
2018-05-13T12:27:04.535Z,39.60
2018-05-13T12:29:34.460Z,39.70
2018-05-13T12:32:02.720Z,39.80
2018-05-13T12:34:30.471Z,39.60
2018-05-13T12:36:58.048Z,39.10
2018-05-13T12:39:26.118Z,39.70
2018-05-13T12:41:53.690Z,40.10
2018-05-13T12:44:21.482Z,39.30
2018-05-13T12:46:48.939Z,38.40
2018-05-13T12:49:16.357Z,38.70
2018-05-13T12:51:44.115Z,39.40
2018-05-13T12:54:11.783Z,39.40
2018-05-13T12:56:54.199Z,39.30
2018-05-13T12:59:22.256Z,39.20
2018-05-13T13:01:49.628Z,39.10
2018-05-13T13:04:17.565Z,39.20
2018-05-13T13:06:45.148Z,39.30
2018-05-13T13:09:12.969Z,39.20
2018-05-13T13:11:40.331Z,38.60
2018-05-13T13:14:07.742Z,38.20
2018-05-13T13:16:35.259Z,38.40
2018-05-13T13:19:02.946Z,38.70
2018-05-13T13:21:30.818Z,38.40
2018-05-13T13:23:58.688Z,38.00
2018-05-13T13:26:26.565Z,38.10
2018-05-13T13:28:54.644Z,37.90
2018-05-13T13:31:22.109Z,37.50
2018-05-13T13:33:49.490Z,37.60
2018-05-13T13:36:17.095Z,37.60
2018-05-13T13:38:44.963Z,37.10
2018-05-13T13:41:12.741Z,36.70
2018-05-13T13:43:40.303Z,36.80
2018-05-13T13:46:07.958Z,36.70
2018-05-13T13:48:35.407Z,37.10
2018-05-13T13:51:03.284Z,36.70
2018-05-13T13:53:30.744Z,36.40
2018-05-13T13:55:58.295Z,36.70
2018-05-13T13:58:26.266Z,36.80
2018-05-13T14:00:54.129Z,37.30
2018-05-13T14:03:21.946Z,36.90
2018-05-13T14:05:49.327Z,36.90
2018-05-13T14:08:16.808Z,37.00
2018-05-13T14:10:44.823Z,37.20
2018-05-13T14:13:12.245Z,37.10
2018-05-13T14:15:39.797Z,36.10
2018-05-13T14:18:07.547Z,36.20
2018-05-13T14:20:35.438Z,35.80
2018-05-13T14:23:03.366Z,35.70
2018-05-13T14:25:30.727Z,35.60
2018-05-13T14:27:58.117Z,35.30
2018-05-13T14:30:25.901Z,35.70
2018-05-13T14:32:53.277Z,35.70
2018-05-13T14:35:20.787Z,35.20
2018-05-13T14:37:48.552Z,35.20
2018-05-13T14:40:16.314Z,35.60
2018-05-13T14:42:44.352Z,35.50
2018-05-13T14:45:14.566Z,35.20
2018-05-13T14:47:41.999Z,35.10
2018-05-13T14:50:09.363Z,35.00
2018-05-13T14:52:36.781Z,35.10
2018-05-13T14:55:04.344Z,34.80
2018-05-13T14:57:32.140Z,34.90
2018-05-13T14:59:59.865Z,34.70
2018-05-13T15:02:27.610Z,34.60
2018-05-13T15:04:55.021Z,34.70
2018-05-13T15:07:30.250Z,34.90
2018-05-13T15:09:57.654Z,34.70
2018-05-13T15:12:25.065Z,35.10
2018-05-13T15:14:52.475Z,35.10
2018-05-13T15:17:20.176Z,35.20
2018-05-13T15:19:49.528Z,34.80
2018-05-13T15:22:17.945Z,34.40
2018-05-13T15:24:46.438Z,34.10
2018-05-13T15:27:14.560Z,34.00
2018-05-13T15:29:41.995Z,34.00
2018-05-13T15:32:09.442Z,33.70
2018-05-13T15:34:36.803Z,33.40
2018-05-13T15:37:04.336Z,33.00
2018-05-13T15:39:31.747Z,32.60
2018-05-13T15:41:59.443Z,32.40
2018-05-13T15:44:27.352Z,32.50
2018-05-13T15:46:54.952Z,32.70
2018-05-13T15:49:29.216Z,32.60
2018-05-13T15:52:06.339Z,32.20
2018-05-13T15:54:34.832Z,32.30
2018-05-13T15:57:03.140Z,32.30
2018-05-13T15:59:30.565Z,32.40
2018-05-13T16:01:58.115Z,32.40
2018-05-13T16:04:25.591Z,32.20
2018-05-13T16:06:53.045Z,32.20
2018-05-13T16:09:20.455Z,32.40
2018-05-13T16:11:47.869Z,32.40
2018-05-13T16:14:15.297Z,32.40
2018-05-13T16:16:42.758Z,32.30
2018-05-13T16:19:10.325Z,32.30
2018-05-13T16:21:38.097Z,32.30
2018-05-13T16:24:05.542Z,32.30
2018-05-13T16:26:33.286Z,32.20
2018-05-13T16:29:00.646Z,32.00
2018-05-13T16:31:28.053Z,31.60
2018-05-13T16:33:55.816Z,31.60
2018-05-13T16:36:23.577Z,31.60
2018-05-13T16:38:51.478Z,31.60
2018-05-13T16:41:18.826Z,31.40
2018-05-13T16:43:46.211Z,31.20
2018-05-13T16:46:14.073Z,31.00
2018-05-13T16:48:41.794Z,31.00
2018-05-13T16:51:09.610Z,30.80
2018-05-13T16:53:37.042Z,30.80
2018-05-13T16:56:04.483Z,30.80
2018-05-13T16:58:32.265Z,30.70
2018-05-13T17:00:59.664Z,30.60
2018-05-13T17:03:28.286Z,30.50
2018-05-13T17:05:56.076Z,30.30
2018-05-13T17:08:23.459Z,30.20
2018-05-13T17:10:50.800Z,30.10
2018-05-13T17:13:18.211Z,30.00
2018-05-13T17:15:46.059Z,29.90
2018-05-13T17:18:13.463Z,29.70
2018-05-13T17:20:40.817Z,29.60
2018-05-13T17:23:08.220Z,29.50
2018-05-13T17:25:35.874Z,29.40
2018-05-13T17:28:03.279Z,29.30
2018-05-13T17:30:30.640Z,29.20
2018-05-13T17:32:58.176Z,29.00
2018-05-13T17:35:25.923Z,28.70
2018-05-13T17:37:53.399Z,28.00
2018-05-13T17:40:21.265Z,27.90
2018-05-13T17:42:49.187Z,27.90
2018-05-13T17:45:24.476Z,27.60
2018-05-13T17:47:52.464Z,27.30
2018-05-13T17:50:20.009Z,27.30
2018-05-13T17:52:48.077Z,27.20
2018-05-13T17:55:16.076Z,26.90
2018-05-13T17:57:43.521Z,26.30
2018-05-13T18:00:11.167Z,25.80
2018-05-13T18:02:44.563Z,25.70
2018-05-13T18:05:12.639Z,25.80
2018-05-13T18:07:40.017Z,25.60
2018-05-13T18:10:07.548Z,25.50
2018-05-13T18:12:36.625Z,25.40
2018-05-13T18:15:04.307Z,24.70
2018-05-13T18:17:32.175Z,24.50
2018-05-13T18:20:00.247Z,24.40
2018-05-13T18:22:28.047Z,24.30
2018-05-13T18:24:56.509Z,24.10
2018-05-13T18:27:24.373Z,23.70
2018-05-13T18:29:52.244Z,23.50
2018-05-13T18:32:19.790Z,23.60
2018-05-13T18:34:48.007Z,23.80
2018-05-13T18:37:15.345Z,24.00
2018-05-13T18:39:42.962Z,24.10
2018-05-13T18:42:10.318Z,24.00
2018-05-13T18:44:38.060Z,23.70
2018-05-13T18:47:05.474Z,23.30
2018-05-13T18:49:32.937Z,22.90
2018-05-13T18:52:00.339Z,22.70
2018-05-13T18:54:27.818Z,22.80
2018-05-13T18:56:55.228Z,22.60
2018-05-13T18:59:22.740Z,22.50
2018-05-13T19:01:50.403Z,22.60
2018-05-13T19:04:18.390Z,22.50
2018-05-13T19:06:46.650Z,22.40
2018-05-13T19:09:15.031Z,22.40
2018-05-13T19:11:42.896Z,22.30
2018-05-13T19:14:11.186Z,22.30
2018-05-13T19:16:39.056Z,22.20
2018-05-13T19:19:07.219Z,22.10
2018-05-13T19:21:34.593Z,22.10
2018-05-13T19:24:02.456Z,22.10
2018-05-13T19:26:29.865Z,22.10
2018-05-13T19:29:14.875Z,21.90
2018-05-13T19:31:42.732Z,21.60
2018-05-13T19:34:10.501Z,21.60
2018-05-13T19:36:38.168Z,21.70
2018-05-13T19:39:14.650Z,21.80
2018-05-13T19:41:42.091Z,21.60
2018-05-13T19:44:10.053Z,21.60
2018-05-13T19:46:38.103Z,21.70
2018-05-13T19:49:06.004Z,21.70
2018-05-13T19:51:33.483Z,21.70
2018-05-13T19:54:01.213Z,21.60
2018-05-13T19:56:29.593Z,21.60
2018-05-13T19:58:57.561Z,21.50
2018-05-13T20:01:25.363Z,21.50
2018-05-13T20:03:52.940Z,21.50
2018-05-13T20:06:20.552Z,21.50
2018-05-13T20:08:48.174Z,21.40
2018-05-13T20:11:15.717Z,21.20
2018-05-13T20:13:43.157Z,21.10
2018-05-13T20:16:10.540Z,21.00
2018-05-13T20:18:38.041Z,21.00
2018-05-13T20:21:05.838Z,21.00
2018-05-13T20:23:33.335Z,21.00
2018-05-13T20:26:00.823Z,21.00
2018-05-13T20:28:28.721Z,20.90
2018-05-13T20:30:56.251Z,20.90
2018-05-13T20:33:24.126Z,20.70
2018-05-13T20:35:51.991Z,20.60
2018-05-13T20:38:19.958Z,20.60
2018-05-13T20:40:47.822Z,20.50
2018-05-13T20:43:16.005Z,20.50
2018-05-13T20:45:43.971Z,20.50
2018-05-13T20:48:12.037Z,20.50
2018-05-13T20:50:40.938Z,20.50
2018-05-13T20:53:08.386Z,20.50
2018-05-13T20:55:36.263Z,20.40
2018-05-13T20:58:04.131Z,20.20
2018-05-13T21:00:33.025Z,20.20
2018-05-13T21:03:01.093Z,20.20
2018-05-13T21:05:28.951Z,20.10
2018-05-13T21:07:56.720Z,20.00
2018-05-13T21:10:24.592Z,20.00
2018-05-13T21:12:52.659Z,19.90
2018-05-13T21:15:20.610Z,20.00
2018-05-13T21:17:48.088Z,19.90
2018-05-13T21:20:16.054Z,19.90
2018-05-13T21:22:44.746Z,19.90
2018-05-13T21:25:13.134Z,19.90
2018-05-13T21:27:41.189Z,19.80
2018-05-13T21:30:09.156Z,19.80
2018-05-13T21:32:36.518Z,19.70
2018-05-13T21:35:04.491Z,19.70
2018-05-13T21:37:32.246Z,19.60
2018-05-13T21:40:00.047Z,19.60
2018-05-13T21:42:27.675Z,19.50
2018-05-13T21:44:55.644Z,19.50
2018-05-13T21:47:24.551Z,19.40
2018-05-13T21:49:53.116Z,19.30
2018-05-13T21:52:21.031Z,19.30
2018-05-13T21:54:48.656Z,19.30
2018-05-13T21:57:16.633Z,19.30
2018-05-13T21:59:44.727Z,19.20
2018-05-13T22:02:12.355Z,19.20
2018-05-13T22:04:39.860Z,19.20
2018-05-13T22:07:07.361Z,19.10
2018-05-13T22:09:34.827Z,19.00
2018-05-13T22:12:03.266Z,18.90
2018-05-13T22:14:30.708Z,18.90
2018-05-13T22:16:58.481Z,18.80
2018-05-13T22:19:26.414Z,18.80
2018-05-13T22:21:54.279Z,18.80
2018-05-13T22:24:22.036Z,18.70
2018-05-13T22:26:49.859Z,18.70
2018-05-13T22:29:17.560Z,18.70
2018-05-13T22:31:45.530Z,18.60
2018-05-13T22:34:13.450Z,18.60
2018-05-13T22:36:40.857Z,18.50
2018-05-13T22:39:08.744Z,18.50
2018-05-13T22:41:37.285Z,18.40
2018-05-13T22:44:04.743Z,18.40
2018-05-13T22:46:32.322Z,18.30
2018-05-13T22:49:00.312Z,18.30
2018-05-13T22:51:27.766Z,18.20
2018-05-13T22:53:55.310Z,18.20
2018-05-13T22:56:23.068Z,18.10
2018-05-13T22:58:51.043Z,18.10
2018-05-13T23:01:18.860Z,18.00
2018-05-13T23:03:46.368Z,18.00
2018-05-13T23:06:14.134Z,18.00
2018-05-13T23:08:41.495Z,17.90
2018-05-13T23:11:09.498Z,17.90
2018-05-13T23:13:37.017Z,17.80
2018-05-13T23:16:05.203Z,17.80
2018-05-13T23:18:32.589Z,17.80
2018-05-13T23:21:00.211Z,17.70
2018-05-13T23:23:28.088Z,17.70
2018-05-13T23:25:55.534Z,17.70
2018-05-13T23:28:22.961Z,17.70
2018-05-13T23:30:50.415Z,17.60
2018-05-13T23:33:17.934Z,17.60
2018-05-13T23:35:45.673Z,17.60
2018-05-13T23:38:13.446Z,17.50
2018-05-13T23:40:41.314Z,17.40
2018-05-13T23:43:09.592Z,17.30
2018-05-13T23:45:38.033Z,17.30
2018-05-13T23:48:05.479Z,17.30
2018-05-13T23:50:33.107Z,17.30
2018-05-13T23:53:00.509Z,17.30
2018-05-13T23:55:27.891Z,17.30
2018-05-13T23:57:56.068Z,17.20
